createdAt,value
2022-11-30T00:02:39.179Z,4.57
2022-11-30T00:07:31.444Z,3.83
2022-11-30T00:12:23.203Z,3.67
2022-11-30T00:17:15.361Z,3.60
2022-11-30T00:22:07.034Z,3.63
2022-11-30T00:26:59.277Z,3.93
2022-11-30T00:31:50.931Z,3.30
2022-11-30T00:36:42.645Z,3.67
2022-11-30T00:41:34.303Z,3.40
2022-11-30T00:46:26.046Z,4.00
2022-11-30T00:51:18.645Z,3.93
2022-11-30T00:56:10.815Z,3.40
2022-11-30T01:01:03.066Z,3.90
2022-11-30T01:05:54.827Z,4.20
2022-11-30T01:10:49.379Z,4.00
2022-11-30T01:15:44.319Z,3.40
2022-11-30T01:20:40.195Z,3.63
2022-11-30T01:25:31.882Z,4.30
2022-11-30T01:30:23.552Z,4.23
2022-11-30T01:35:15.323Z,4.53
2022-11-30T01:40:09.000Z,3.97
2022-11-30T01:45:02.322Z,3.73
2022-11-30T01:50:08.460Z,3.77
2022-11-30T01:55:16.050Z,4.60
2022-11-30T02:00:14.246Z,4.60
2022-11-30T02:05:07.784Z,4.47
2022-11-30T02:09:59.507Z,4.40
2022-11-30T02:14:59.860Z,4.37
2022-11-30T02:20:35.172Z,4.50
2022-11-30T02:25:34.387Z,4.80
2022-11-30T02:30:26.361Z,4.57
2022-11-30T02:35:25.696Z,5.07
2022-11-30T02:40:19.416Z,5.20
2022-11-30T02:45:12.247Z,5.20
2022-11-30T02:50:25.682Z,5.23
2022-11-30T02:55:20.186Z,4.80
2022-11-30T03:00:14.036Z,4.97
2022-11-30T03:05:07.225Z,5.53
2022-11-30T03:09:59.959Z,5.83
2022-11-30T03:14:51.997Z,6.10
2022-11-30T03:19:43.660Z,5.67
2022-11-30T03:24:35.390Z,5.93
2022-11-30T03:29:27.191Z,5.70
2022-11-30T03:34:18.875Z,6.30
2022-11-30T03:39:10.545Z,7.37
2022-11-30T03:44:02.372Z,7.97
2022-11-30T03:48:54.486Z,8.73
2022-11-30T03:53:46.287Z,9.30
2022-11-30T03:58:38.578Z,8.77
2022-11-30T04:03:31.067Z,10.00
2022-11-30T04:08:23.023Z,10.20
2022-11-30T04:39:01.574Z,12.27
2022-11-30T05:04:16.916Z,10.60
2022-11-30T05:09:09.978Z,11.70
2022-11-30T05:14:09.364Z,11.80
2022-11-30T05:24:09.105Z,10.80
2022-11-30T05:39:12.794Z,11.53
2022-11-30T05:49:21.032Z,10.27
2022-11-30T06:04:32.610Z,10.40
2022-11-30T06:19:37.013Z,11.27
2022-11-30T06:50:01.668Z,12.27
2022-11-30T06:54:57.199Z,12.13
2022-11-30T07:10:01.756Z,13.03
2022-11-30T07:25:28.606Z,13.17
2022-11-30T07:30:24.033Z,11.87
2022-11-30T07:35:17.794Z,13.17
2022-11-30T07:40:12.148Z,12.77
2022-11-30T07:45:05.715Z,12.60
2022-11-30T08:10:26.591Z,9.60
2022-11-30T08:15:20.717Z,8.10
2022-11-30T08:20:13.832Z,7.53
2022-11-30T08:30:13.334Z,5.47
2022-11-30T08:35:07.990Z,6.17
2022-11-30T08:40:00.406Z,5.27
2022-11-30T09:00:20.500Z,4.30
2022-11-30T09:05:13.290Z,4.80
2022-11-30T09:15:14.741Z,4.13
2022-11-30T09:20:09.793Z,3.73
2022-11-30T09:25:02.712Z,3.57
2022-11-30T09:55:47.212Z,3.70
2022-11-30T10:00:47.922Z,3.07
2022-11-30T10:29:05.935Z,3.60
2022-11-30T10:40:15.192Z,5.43
2022-11-30T10:50:28.341Z,7.10
2022-11-30T11:10:52.481Z,6.60
2022-11-30T11:48:30.060Z,7.63
2022-11-30T12:27:31.631Z,7.77
2022-11-30T12:50:31.636Z,6.87
2022-11-30T13:17:34.610Z,6.03
2022-11-30T14:05:22.221Z,5.57
2022-11-30T14:21:33.568Z,7.50
2022-11-30T14:26:54.472Z,8.23
2022-11-30T14:32:14.617Z,8.57
2022-11-30T15:10:44.544Z,8.17
2022-11-30T15:15:41.831Z,7.10
2022-11-30T15:36:33.753Z,7.97
2022-11-30T15:41:28.210Z,7.40
2022-11-30T15:46:58.446Z,7.47
2022-11-30T15:52:17.540Z,7.87
2022-11-30T16:08:11.059Z,7.53
2022-11-30T16:18:19.676Z,7.87
2022-11-30T16:28:26.173Z,8.00
2022-11-30T16:48:41.893Z,8.20
2022-11-30T16:58:40.953Z,9.00
2022-11-30T17:03:37.225Z,8.27
2022-11-30T17:13:36.076Z,9.50
2022-11-30T17:18:29.635Z,9.30
2022-11-30T17:23:22.694Z,8.83
2022-11-30T17:28:15.321Z,7.40
2022-11-30T17:33:08.316Z,6.53
2022-11-30T17:38:02.032Z,6.60
2022-11-30T17:42:56.321Z,5.60
2022-11-30T17:47:48.244Z,5.77
2022-11-30T17:52:41.176Z,5.90
2022-11-30T18:07:56.838Z,5.40
2022-11-30T18:12:48.811Z,6.27
2022-11-30T18:17:40.740Z,5.37
2022-11-30T18:22:33.098Z,5.57
2022-11-30T18:27:26.716Z,5.93
2022-11-30T18:32:23.182Z,5.57
2022-11-30T18:37:18.944Z,6.30
2022-11-30T18:47:18.984Z,6.40
2022-11-30T18:52:11.701Z,6.23
2022-11-30T18:57:11.822Z,6.43
2022-11-30T19:02:07.621Z,6.80
2022-11-30T19:17:12.135Z,6.60
2022-11-30T19:22:04.158Z,6.30
2022-11-30T19:26:56.821Z,6.53
2022-11-30T19:31:49.824Z,7.63
2022-11-30T19:36:43.559Z,6.77
2022-11-30T19:41:35.370Z,7.73
2022-11-30T19:46:33.017Z,6.43
2022-11-30T19:51:28.506Z,6.60
2022-11-30T19:56:21.168Z,6.53
2022-11-30T20:01:23.300Z,7.23
2022-11-30T20:06:15.893Z,8.10
2022-11-30T20:11:14.324Z,7.40
2022-11-30T20:16:17.343Z,8.20
2022-11-30T20:21:12.213Z,7.93
2022-11-30T20:26:31.490Z,8.53
2022-11-30T20:31:25.386Z,8.50
2022-11-30T20:41:27.040Z,8.07
2022-11-30T20:46:27.982Z,8.17
2022-11-30T20:51:31.693Z,8.23
2022-11-30T20:56:28.446Z,8.83
2022-11-30T21:01:23.054Z,7.97
2022-11-30T21:06:16.964Z,7.67
2022-11-30T21:11:17.695Z,7.80
2022-11-30T21:16:12.143Z,7.80
2022-11-30T21:21:08.285Z,6.77
2022-11-30T21:26:10.499Z,7.47
2022-11-30T21:31:05.007Z,8.07
2022-11-30T21:35:57.327Z,8.73
2022-11-30T21:41:00.660Z,8.60
2022-11-30T21:45:59.889Z,8.70
2022-11-30T21:51:09.943Z,8.93
2022-11-30T21:56:08.453Z,8.50
2022-11-30T22:01:08.972Z,8.43
2022-11-30T22:11:17.634Z,8.40
2022-11-30T22:16:21.590Z,9.43
2022-11-30T22:21:30.045Z,9.13
2022-11-30T22:26:37.397Z,8.77
2022-11-30T22:31:39.740Z,9.57
2022-11-30T22:36:36.470Z,10.23
2022-11-30T22:41:29.930Z,8.80
2022-11-30T22:46:40.256Z,8.90
2022-11-30T22:51:35.305Z,10.00
2022-11-30T22:56:34.245Z,10.43
2022-11-30T23:01:28.949Z,9.27
2022-11-30T23:06:21.814Z,10.43
2022-11-30T23:11:19.787Z,9.53
2022-11-30T23:16:15.377Z,8.83
2022-11-30T23:21:12.290Z,9.03
2022-11-30T23:26:20.771Z,10.07
2022-11-30T23:31:34.535Z,10.03
2022-11-30T23:36:31.276Z,8.93
2022-11-30T23:41:24.041Z,10.13
2022-11-30T23:46:16.522Z,9.77
2022-11-30T23:51:08.732Z,9.43
2022-11-30T23:56:07.461Z,10.17
